LGKR/CFU METAR and TAF weather

Enter ICAO airport designator
Station Type Date Time Source
LGKR METAR 2020/09/18 16:20 UTC NOAA

LGKR 181620Z /////KT 9999 -RA BKN040 OVC080 23/21 Q1010 NOSIG


Station Type Date Time Source
LGKR Decoded METAR 2020/09/18 16:20 UTC NOAA

Kerkyra Airport , Greece (LGKR) 39-37N 019-55E 4M
Sep 18, 2020 - 12:20 PM EDT / 2020.09.18 1620 UTC
Visibility: greater than 7 mile(s):0
Sky conditions: overcast
Weather: light rain
Temperature: 73 F (23 C)
Dew Point: 69 F (21 C)
Relative Humidity: 88%
Pressure (altimeter): 29.83 in. Hg (1010 hPa)
ob: LGKR 181620Z /////KT 9999 -RA BKN040 OVC080 23/21 Q1010 NOSIG
cycle: 16

Station Type Date Time Source
LGKR TAF 2020/09/18 12:16 UTC NOAA

TAF LGKR 181100Z 1812/1912 VRB05KT 9999 SCT008 BKN030 OVC070
BECMG 1812/1814 34012KT PROB40
TEMPO 1812/1818 5000 RA SCT010 FEW018TCU BKN025 OVC070 PROB30
TEMPO 1812/1818 3000 TSRA SCT010 FEW018CB BKN020 OVC070
TEMPO 1814/1818 35012G22KT

Example: see airport list